Aviation Digital Data Service (ADDS)

Output produced by METARs form (1126 UTC 28 September 2021)
found at http://www.aviationweather.gov/metar/data/
 
KRWF 281120Z 2812/2912 13006KT P6SM SKC 
     FM281800 16010KT P6SM SKC 
     FM290900 14006KT P6SM SKC
       
KMSP 281120Z 2812/2918 14007KT P6SM SKC